createdAt,value
2022-11-08T00:01:39.770Z,2.57
2022-11-08T00:04:07.286Z,2.10
2022-11-08T00:06:52.332Z,2.47
2022-11-08T00:09:37.211Z,2.43
2022-11-08T00:12:21.945Z,2.17
2022-11-08T00:14:48.322Z,2.70
2022-11-08T00:17:15.347Z,2.30
2022-11-08T00:19:41.975Z,2.20
2022-11-08T00:22:08.566Z,2.17
2022-11-08T00:24:34.843Z,2.57
2022-11-08T00:27:02.840Z,1.90
2022-11-08T00:29:29.081Z,2.40
2022-11-08T00:31:55.326Z,2.23
2022-11-08T00:34:21.536Z,2.03
2022-11-08T00:36:47.755Z,2.03
2022-11-08T00:39:13.983Z,2.17
2022-11-08T00:41:40.198Z,2.10
2022-11-08T00:44:06.482Z,2.40
2022-11-08T00:46:32.699Z,2.73
2022-11-08T00:48:58.918Z,2.40
2022-11-08T00:51:25.215Z,2.20
2022-11-08T00:53:51.442Z,2.50
2022-11-08T00:56:17.676Z,2.23
2022-11-08T00:58:44.140Z,2.47
2022-11-08T01:01:14.745Z,2.40
2022-11-08T01:03:41.039Z,2.60
2022-11-08T01:06:08.596Z,2.33
2022-11-08T01:08:34.830Z,2.73
2022-11-08T01:11:02.337Z,2.10
2022-11-08T01:13:28.888Z,2.20
2022-11-08T01:15:55.199Z,2.33
2022-11-08T01:18:21.771Z,1.90
2022-11-08T01:20:49.197Z,2.20
2022-11-08T01:23:16.658Z,2.37
2022-11-08T01:25:44.219Z,2.30
2022-11-08T01:28:11.097Z,2.40
2022-11-08T01:30:38.507Z,2.50
2022-11-08T01:33:06.653Z,2.40
2022-11-08T01:35:33.541Z,2.50
2022-11-08T01:38:00.422Z,2.77
2022-11-08T01:40:27.014Z,2.40
2022-11-08T01:42:53.559Z,2.00
2022-11-08T01:45:38.407Z,2.10
2022-11-08T01:48:04.720Z,2.40
2022-11-08T01:50:31.274Z,2.40
2022-11-08T01:52:57.500Z,2.80
2022-11-08T01:55:29.274Z,2.50
2022-11-08T01:58:00.177Z,2.83
2022-11-08T02:00:26.430Z,2.20
2022-11-08T02:02:56.417Z,2.30
2022-11-08T02:05:25.970Z,2.50
2022-11-08T02:07:54.469Z,2.63
2022-11-08T02:10:21.980Z,2.30
2022-11-08T02:12:48.209Z,2.30
2022-11-08T02:15:15.157Z,2.40
2022-11-08T02:17:41.392Z,2.60
2022-11-08T02:20:07.832Z,2.37
2022-11-08T02:22:39.785Z,2.40
2022-11-08T02:25:06.218Z,2.90
2022-11-08T02:27:32.460Z,2.30
2022-11-08T02:29:58.666Z,2.30
2022-11-08T02:32:24.921Z,2.30
2022-11-08T02:34:52.986Z,2.37
2022-11-08T02:37:20.800Z,2.60
2022-11-08T02:39:47.880Z,2.40
2022-11-08T02:42:14.905Z,2.50
2022-11-08T02:44:41.180Z,2.57
2022-11-08T02:47:07.423Z,2.47
2022-11-08T02:49:33.629Z,2.67
2022-11-08T02:51:59.845Z,2.87
2022-11-08T02:54:26.053Z,3.07
2022-11-08T02:56:52.293Z,2.10
2022-11-08T02:59:18.520Z,2.50
2022-11-08T03:01:45.131Z,2.20
2022-11-08T03:04:11.519Z,2.77
2022-11-08T03:06:37.801Z,2.90
2022-11-08T03:09:04.082Z,3.00
2022-11-08T03:11:30.352Z,2.50
2022-11-08T03:13:56.748Z,2.80
2022-11-08T03:16:23.014Z,2.40
2022-11-08T03:18:49.254Z,2.07
2022-11-08T03:21:15.482Z,2.17
2022-11-08T03:23:41.842Z,2.87
2022-11-08T03:26:08.117Z,2.77
2022-11-08T03:28:34.378Z,2.60
2022-11-08T03:31:00.677Z,2.60
2022-11-08T03:33:26.918Z,2.53
2022-11-08T03:35:53.227Z,2.53
2022-11-08T03:38:19.864Z,2.47
2022-11-08T03:40:46.568Z,2.27
2022-11-08T03:43:12.946Z,2.20
2022-11-08T03:45:39.148Z,2.37
2022-11-08T03:48:05.506Z,2.70
2022-11-08T03:50:32.749Z,2.70
2022-11-08T03:52:59.108Z,2.50
2022-11-08T03:55:26.504Z,2.47
2022-11-08T03:57:53.258Z,2.60
2022-11-08T04:00:21.208Z,2.80
2022-11-08T04:02:47.429Z,2.57
2022-11-08T04:05:14.429Z,2.63
2022-11-08T04:07:40.698Z,3.30
2022-11-08T04:10:07.645Z,2.27
2022-11-08T04:12:52.557Z,2.50
2022-11-08T04:15:20.298Z,2.43
2022-11-08T04:18:06.219Z,2.67
2022-11-08T04:20:51.029Z,2.53
2022-11-08T04:23:17.663Z,2.13
2022-11-08T04:25:44.472Z,2.47
2022-11-08T04:28:11.257Z,2.50
2022-11-08T04:30:37.725Z,2.30
2022-11-08T04:33:04.574Z,3.27
2022-11-08T04:35:31.405Z,2.60
2022-11-08T04:38:01.282Z,2.83
2022-11-08T04:40:28.209Z,2.60
2022-11-08T04:42:54.430Z,2.73
2022-11-08T04:45:20.806Z,3.00
2022-11-08T04:47:48.497Z,2.77
2022-11-08T04:50:15.477Z,3.13
2022-11-08T04:52:42.040Z,3.10
2022-11-08T04:55:08.788Z,2.80
2022-11-08T04:57:35.309Z,2.97
2022-11-08T05:00:01.598Z,3.13
2022-11-08T05:02:27.898Z,3.10
2022-11-08T05:04:54.186Z,3.10
2022-11-08T05:07:20.465Z,3.10
2022-11-08T05:09:46.706Z,3.47
2022-11-08T05:12:12.926Z,3.10
2022-11-08T05:14:39.142Z,3.13
2022-11-08T05:17:06.604Z,2.93
2022-11-08T05:19:51.357Z,3.00
2022-11-08T05:22:36.127Z,3.13
2022-11-08T05:25:02.340Z,2.83
2022-11-08T05:27:28.701Z,3.30
2022-11-08T05:29:54.919Z,3.27
2022-11-08T05:32:22.243Z,3.13
2022-11-08T05:34:48.476Z,3.07
2022-11-08T05:37:14.737Z,3.07
2022-11-08T05:39:40.951Z,2.90
2022-11-08T05:42:07.165Z,2.97
2022-11-08T05:44:33.933Z,3.10
2022-11-08T05:47:00.176Z,3.00
2022-11-08T05:49:26.398Z,3.30
2022-11-08T05:51:52.627Z,3.57
2022-11-08T05:54:18.867Z,3.20
2022-11-08T05:56:45.073Z,2.73
2022-11-08T05:59:11.308Z,3.53
2022-11-08T06:01:37.898Z,3.80
2022-11-08T06:04:04.214Z,3.33
2022-11-08T06:06:30.527Z,3.17
2022-11-08T06:08:56.740Z,3.60
2022-11-08T06:11:24.453Z,3.40
2022-11-08T06:13:51.481Z,3.47
2022-11-08T06:16:18.534Z,3.10
2022-11-08T06:18:44.822Z,3.40
2022-11-08T06:21:12.699Z,3.23
2022-11-08T06:23:39.230Z,3.50
2022-11-08T06:26:05.548Z,3.47
2022-11-08T06:28:32.058Z,3.13
2022-11-08T06:30:58.719Z,3.77
2022-11-08T06:33:26.217Z,3.30
2022-11-08T06:35:52.461Z,3.00
2022-11-08T06:38:18.693Z,3.40
2022-11-08T06:40:45.230Z,3.20
2022-11-08T06:43:17.951Z,3.40
2022-11-08T06:45:45.461Z,3.53
2022-11-08T06:48:11.703Z,3.70
2022-11-08T06:50:37.906Z,3.33
2022-11-08T06:53:05.893Z,3.50
2022-11-08T06:55:33.000Z,3.90
2022-11-08T06:57:59.261Z,3.30
2022-11-08T07:00:26.336Z,3.77
2022-11-08T07:02:53.657Z,4.13
2022-11-08T07:05:20.005Z,3.83
2022-11-08T07:07:51.909Z,4.37
2022-11-08T07:10:19.191Z,3.70
2022-11-08T07:12:45.676Z,4.20
2022-11-08T07:15:12.044Z,4.20
2022-11-08T07:17:38.951Z,3.93
2022-11-08T07:20:05.630Z,3.80
2022-11-08T07:22:31.879Z,3.87
2022-11-08T07:24:58.115Z,3.70
2022-11-08T07:27:24.331Z,3.53
2022-11-08T07:29:50.552Z,3.57
2022-11-08T07:32:16.762Z,3.60
2022-11-08T07:34:42.961Z,4.00
2022-11-08T07:37:09.303Z,4.43
2022-11-08T07:39:36.673Z,3.93
2022-11-08T07:42:02.961Z,3.60
2022-11-08T07:44:29.187Z,3.93
2022-11-08T07:46:55.849Z,3.60
2022-11-08T07:49:22.079Z,3.63
2022-11-08T07:51:48.419Z,4.03
2022-11-08T07:54:14.622Z,3.60
2022-11-08T07:56:40.858Z,3.50
2022-11-08T07:59:07.129Z,3.70
2022-11-08T08:01:33.402Z,3.47
2022-11-08T08:03:59.651Z,3.50
2022-11-08T08:06:26.542Z,3.30
2022-11-08T08:08:52.792Z,3.40
2022-11-08T08:11:19.641Z,3.67
2022-11-08T08:13:45.843Z,3.37
2022-11-08T08:16:12.067Z,3.53
2022-11-08T08:18:38.279Z,3.17
2022-11-08T08:21:04.531Z,3.10
2022-11-08T08:23:30.759Z,2.80
2022-11-08T08:25:57.024Z,3.30
2022-11-08T08:28:23.240Z,2.90
2022-11-08T08:30:49.483Z,2.60
2022-11-08T08:33:31.911Z,2.87
2022-11-08T08:36:00.918Z,2.83
2022-11-08T08:38:27.511Z,2.90
2022-11-08T08:40:53.766Z,2.80
2022-11-08T08:43:20.842Z,2.73
2022-11-08T08:45:49.203Z,2.60
2022-11-08T08:48:15.457Z,2.63
2022-11-08T08:50:41.914Z,2.80
2022-11-08T08:53:08.192Z,2.70
2022-11-08T08:55:35.439Z,2.90
2022-11-08T08:58:01.758Z,2.27
2022-11-08T09:03:14.413Z,2.33
2022-11-08T09:05:46.254Z,2.33
2022-11-08T09:08:14.120Z,2.43
2022-11-08T09:10:41.091Z,2.77
2022-11-08T09:13:07.445Z,2.57
2022-11-08T09:15:33.697Z,2.40
2022-11-08T09:18:00.376Z,2.57
2022-11-08T09:20:26.694Z,2.10
2022-11-08T09:22:52.929Z,1.93
2022-11-08T09:25:19.154Z,2.30
2022-11-08T09:27:45.367Z,2.13
2022-11-08T09:30:11.614Z,2.00
2022-11-08T09:32:59.846Z,2.10
2022-11-08T09:41:55.651Z,2.03
2022-11-08T09:44:41.108Z,2.23
2022-11-08T09:47:17.129Z,2.50
2022-11-08T09:49:46.893Z,2.00
2022-11-08T09:52:19.763Z,2.37
2022-11-08T09:54:47.289Z,2.10
2022-11-08T09:57:20.506Z,1.97
2022-11-08T09:59:49.304Z,1.83
2022-11-08T10:02:23.034Z,1.73
2022-11-08T10:04:53.143Z,2.07
2022-11-08T10:07:25.311Z,1.70
2022-11-08T10:10:13.488Z,2.00
2022-11-08T10:13:00.635Z,1.93
2022-11-08T10:15:45.455Z,2.13
2022-11-08T10:18:20.165Z,1.80
2022-11-08T10:20:59.526Z,1.90
2022-11-08T10:23:32.575Z,2.43
2022-11-08T10:26:20.543Z,2.07
2022-11-08T10:28:55.785Z,1.57
2022-11-08T10:31:22.105Z,1.70
2022-11-08T10:33:50.420Z,1.60
2022-11-08T10:36:26.015Z,2.03
2022-11-08T10:39:00.798Z,1.97
2022-11-08T10:41:42.086Z,1.73
2022-11-08T10:44:34.654Z,1.87
2022-11-08T10:47:02.902Z,1.90
2022-11-08T10:49:30.613Z,2.03
2022-11-08T10:52:17.188Z,1.93
2022-11-08T10:54:43.483Z,1.60
2022-11-08T10:57:14.528Z,1.90
2022-11-08T10:59:41.323Z,1.77
2022-11-08T11:02:18.241Z,1.83
2022-11-08T11:04:44.818Z,1.60
2022-11-08T11:07:37.436Z,1.73
2022-11-08T11:10:23.513Z,1.77
2022-11-08T11:13:08.900Z,1.70
2022-11-08T11:15:39.939Z,1.73
2022-11-08T11:18:18.338Z,1.90
2022-11-08T11:20:58.153Z,1.87
2022-11-08T11:23:31.863Z,1.87
2022-11-08T11:25:58.778Z,1.83
2022-11-08T11:28:25.234Z,1.63
2022-11-08T11:30:59.900Z,1.70
2022-11-08T11:33:27.535Z,1.57
2022-11-08T11:36:26.207Z,1.77
2022-11-08T11:38:55.551Z,1.83
2022-11-08T11:41:26.209Z,1.70
2022-11-08T11:44:00.811Z,1.70
2022-11-08T11:46:31.450Z,2.10
2022-11-08T11:49:01.613Z,1.87
2022-11-08T11:51:29.536Z,1.70
2022-11-08T11:53:56.951Z,1.70
2022-11-08T11:56:31.630Z,1.70
2022-11-08T11:59:07.049Z,1.37
2022-11-08T12:01:46.891Z,1.50
2022-11-08T12:04:28.569Z,1.50
2022-11-08T12:07:14.792Z,1.53
2022-11-08T12:09:47.879Z,1.60
2022-11-08T12:12:20.399Z,1.70
2022-11-08T12:15:05.481Z,1.83
2022-11-08T12:17:31.707Z,1.27
2022-11-08T12:20:09.943Z,1.50
2022-11-08T12:22:42.626Z,1.60
2022-11-08T12:25:25.963Z,1.53
2022-11-08T12:28:01.577Z,1.43
2022-11-08T12:30:42.409Z,1.60
2022-11-08T12:33:19.138Z,1.67
2022-11-08T12:35:54.274Z,1.70
2022-11-08T12:38:32.139Z,1.70
2022-11-08T12:41:21.425Z,1.67
2022-11-08T12:44:06.864Z,1.20
2022-11-08T12:46:37.438Z,1.40
2022-11-08T12:49:21.945Z,1.60
2022-11-08T12:51:59.142Z,1.60
2022-11-08T12:54:36.970Z,1.47
2022-11-08T12:57:06.002Z,1.63
2022-11-08T12:59:34.551Z,1.87
2022-11-08T13:02:02.020Z,1.90
2022-11-08T13:04:49.839Z,1.60
2022-11-08T13:07:22.894Z,1.60
2022-11-08T13:09:56.293Z,1.60
2022-11-08T13:12:28.392Z,1.50
2022-11-08T13:14:54.738Z,1.60
2022-11-08T13:17:23.078Z,1.53
2022-11-08T13:19:52.270Z,1.47
2022-11-08T13:22:31.132Z,1.30
2022-11-08T13:25:06.644Z,1.50
2022-11-08T13:27:43.137Z,1.40
2022-11-08T13:30:13.937Z,1.90
2022-11-08T13:32:43.044Z,1.30
2022-11-08T13:35:20.888Z,1.33
2022-11-08T13:37:53.064Z,1.20
2022-11-08T13:40:20.258Z,1.50
2022-11-08T13:42:49.348Z,1.50
2022-11-08T13:45:27.098Z,1.37
2022-11-08T13:48:03.773Z,1.47
2022-11-08T13:50:33.829Z,1.50
2022-11-08T13:53:18.481Z,1.70
2022-11-08T13:56:03.441Z,1.43
2022-11-08T13:58:37.611Z,1.40
2022-11-08T14:01:05.652Z,1.70
2022-11-08T14:03:34.707Z,1.50
2022-11-08T14:06:05.481Z,1.40
2022-11-08T14:08:39.218Z,1.80
2022-11-08T14:11:20.043Z,1.80
2022-11-08T14:14:13.697Z,1.30
2022-11-08T14:16:55.000Z,1.83
2022-11-08T14:19:23.243Z,1.77
2022-11-08T14:21:51.150Z,1.53
2022-11-08T14:24:19.211Z,1.60
2022-11-08T14:26:47.000Z,1.50
2022-11-08T14:29:20.331Z,1.63
2022-11-08T14:31:46.987Z,1.43
2022-11-08T14:34:33.544Z,1.77
2022-11-08T14:37:00.266Z,1.60
2022-11-08T14:39:30.914Z,1.67
2022-11-08T14:41:58.755Z,1.83
2022-11-08T14:44:25.330Z,1.53
2022-11-08T14:46:51.811Z,1.60
2022-11-08T14:49:20.205Z,1.50
2022-11-08T14:51:46.891Z,1.70
2022-11-08T14:54:17.512Z,1.40
2022-11-08T14:56:45.050Z,1.63
2022-11-08T14:59:12.075Z,2.00
2022-11-08T15:01:38.988Z,2.00
2022-11-08T15:04:11.575Z,1.70
2022-11-08T15:06:42.388Z,1.70
2022-11-08T15:09:16.707Z,1.80
2022-11-08T15:11:43.176Z,1.83
2022-11-08T15:14:11.031Z,1.87
2022-11-08T15:16:38.930Z,1.87
2022-11-08T15:19:28.417Z,2.07
2022-11-08T15:21:54.710Z,1.87
2022-11-08T15:24:27.162Z,1.80
2022-11-08T15:27:11.745Z,1.80
2022-11-08T15:29:56.897Z,1.70
2022-11-08T15:32:23.217Z,2.00
2022-11-08T15:34:52.937Z,2.00
2022-11-08T15:37:37.716Z,1.63
2022-11-08T15:40:27.170Z,2.33
2022-11-08T15:42:54.127Z,2.00
2022-11-08T15:45:25.179Z,1.80
2022-11-08T15:47:52.174Z,1.70
2022-11-08T15:50:20.143Z,1.97
2022-11-08T15:52:48.849Z,1.70
2022-11-08T15:55:16.666Z,1.60
2022-11-08T15:57:43.481Z,1.90
2022-11-08T16:00:15.712Z,2.00
2022-11-08T16:02:42.074Z,1.57
2022-11-08T16:05:14.835Z,2.10
2022-11-08T16:07:41.106Z,1.70
2022-11-08T16:10:07.542Z,1.90
2022-11-08T16:12:34.176Z,1.83
2022-11-08T16:15:00.417Z,2.00
2022-11-08T16:17:27.203Z,1.90
2022-11-08T16:19:53.537Z,2.20
2022-11-08T16:22:19.778Z,2.47
2022-11-08T16:24:45.990Z,2.17
2022-11-08T16:27:12.276Z,1.83
2022-11-08T16:29:38.515Z,2.10
2022-11-08T16:32:04.866Z,2.07
2022-11-08T16:34:31.138Z,2.03
2022-11-08T16:36:57.397Z,2.00
2022-11-08T16:39:26.124Z,2.40
2022-11-08T16:41:52.365Z,2.20
2022-11-08T16:44:18.660Z,2.40
2022-11-08T16:46:45.055Z,2.27
2022-11-08T16:49:30.608Z,2.00
2022-11-08T16:51:56.821Z,2.90
2022-11-08T16:54:28.560Z,2.97
2022-11-08T16:57:13.678Z,2.90
2022-11-08T16:59:42.276Z,3.43
2022-11-08T17:02:29.817Z,3.50
2022-11-08T17:04:56.401Z,3.17
2022-11-08T17:07:25.829Z,2.80
2022-11-08T17:09:52.358Z,3.10
2022-11-08T17:12:18.565Z,2.97
2022-11-08T17:14:44.802Z,3.13
2022-11-08T17:17:11.879Z,3.07
2022-11-08T17:19:38.168Z,2.83
2022-11-08T17:22:04.741Z,3.07
2022-11-08T17:24:31.252Z,3.20
2022-11-08T17:26:57.492Z,2.50
2022-11-08T17:29:23.874Z,3.27
2022-11-08T17:31:50.143Z,2.67
2022-11-08T17:34:16.386Z,2.93
2022-11-08T17:36:42.604Z,2.60
2022-11-08T17:39:10.794Z,2.27
2022-11-08T17:41:37.011Z,2.73
2022-11-08T17:44:03.323Z,2.30
2022-11-08T17:46:29.916Z,2.70
2022-11-08T17:48:56.178Z,2.50
2022-11-08T17:51:22.460Z,2.40
2022-11-08T17:53:48.902Z,2.67
2022-11-08T17:56:16.193Z,2.70
2022-11-08T17:58:42.475Z,2.50
2022-11-08T18:01:09.311Z,2.30
2022-11-08T18:03:35.764Z,2.73
2022-11-08T18:06:03.714Z,2.50
2022-11-08T18:08:31.224Z,2.47
2022-11-08T18:10:57.879Z,2.37
2022-11-08T18:13:24.842Z,2.30
2022-11-08T18:15:51.828Z,2.27
2022-11-08T18:18:18.423Z,3.00
2022-11-08T18:20:45.027Z,2.50
2022-11-08T18:23:12.270Z,2.63
2022-11-08T18:25:38.799Z,2.43
2022-11-08T18:28:05.112Z,2.63
2022-11-08T18:30:32.532Z,2.80
2022-11-08T18:32:58.771Z,2.43
2022-11-08T18:35:27.311Z,2.47
2022-11-08T18:37:53.769Z,2.50
2022-11-08T18:40:20.069Z,2.20
2022-11-08T18:42:46.288Z,2.70
2022-11-08T18:45:12.569Z,2.47
2022-11-08T18:47:38.821Z,2.00
2022-11-08T18:50:05.520Z,2.30
2022-11-08T18:52:31.738Z,2.30
2022-11-08T18:54:57.968Z,2.57
2022-11-08T18:57:24.193Z,2.30
2022-11-08T18:59:50.479Z,2.13
2022-11-08T19:02:16.749Z,2.30
2022-11-08T19:04:46.108Z,2.10
2022-11-08T19:07:12.370Z,2.40
2022-11-08T19:09:39.381Z,2.50
2022-11-08T19:12:06.266Z,2.17
2022-11-08T19:14:32.774Z,2.03
2022-11-08T19:16:58.997Z,2.13
2022-11-08T19:19:25.212Z,2.47
2022-11-08T19:21:51.464Z,1.90
2022-11-08T19:24:17.819Z,2.37
2022-11-08T19:26:44.122Z,2.03
2022-11-08T19:29:12.194Z,2.13
2022-11-08T19:31:39.025Z,2.27
2022-11-08T19:34:05.655Z,2.40
2022-11-08T19:36:40.283Z,2.20
2022-11-08T19:39:06.516Z,2.43
2022-11-08T19:41:32.745Z,2.50
2022-11-08T19:43:58.987Z,2.20
2022-11-08T19:46:28.776Z,2.40
2022-11-08T19:48:55.056Z,2.50
2022-11-08T19:51:25.142Z,2.40
2022-11-08T19:53:59.123Z,2.10
2022-11-08T19:56:43.430Z,2.00
2022-11-08T19:59:12.215Z,2.00
2022-11-08T20:01:40.192Z,2.07
2022-11-08T20:04:07.554Z,2.10
2022-11-08T20:06:33.837Z,2.10
2022-11-08T20:09:00.808Z,2.73
2022-11-08T20:11:28.485Z,2.33
2022-11-08T20:13:55.172Z,2.40
2022-11-08T20:16:23.794Z,2.17
2022-11-08T20:18:50.250Z,2.10
2022-11-08T20:21:16.976Z,2.30
2022-11-08T20:23:43.545Z,2.40
2022-11-08T20:26:16.275Z,2.60
2022-11-08T20:28:55.294Z,2.57
2022-11-08T20:31:23.102Z,2.43
2022-11-08T20:33:50.707Z,2.00
2022-11-08T20:36:17.929Z,2.33
2022-11-08T20:38:44.461Z,2.60
2022-11-08T20:41:12.151Z,2.53
2022-11-08T20:43:41.853Z,2.40
2022-11-08T20:46:09.455Z,2.60
2022-11-08T20:48:35.702Z,2.50
2022-11-08T20:51:02.966Z,2.77
2022-11-08T20:53:33.645Z,2.63
2022-11-08T20:56:00.603Z,2.10
2022-11-08T20:58:27.543Z,2.50
2022-11-08T21:00:58.812Z,2.43
2022-11-08T21:03:25.913Z,2.13
2022-11-08T21:05:56.218Z,2.20
2022-11-08T21:11:10.291Z,2.20
2022-11-08T21:13:37.682Z,2.40
2022-11-08T21:16:28.062Z,2.10
2022-11-08T21:18:51.373Z,2.33
2022-11-08T21:21:19.088Z,1.87
2022-11-08T21:23:46.900Z,2.10
2022-11-08T21:26:14.095Z,2.27
2022-11-08T21:28:40.558Z,1.87
2022-11-08T21:31:07.527Z,2.00
2022-11-08T21:33:34.308Z,2.10
2022-11-08T21:36:01.057Z,2.20
2022-11-08T21:38:27.628Z,2.20
2022-11-08T21:40:54.093Z,2.40
2022-11-08T21:43:20.835Z,2.67
2022-11-08T21:45:47.448Z,2.53
2022-11-08T21:48:15.450Z,2.33
2022-11-08T21:50:42.025Z,2.40
2022-11-08T21:53:10.045Z,2.10
2022-11-08T21:55:36.319Z,2.33
2022-11-08T21:58:03.061Z,2.43
2022-11-08T22:00:29.390Z,2.30
2022-11-08T22:02:56.051Z,2.47
2022-11-08T22:05:22.460Z,2.30
2022-11-08T22:07:48.715Z,2.53
2022-11-08T22:10:14.979Z,2.40
2022-11-08T22:12:41.363Z,2.17
2022-11-08T22:15:08.582Z,1.97
2022-11-08T22:17:34.935Z,2.67
2022-11-08T22:20:01.283Z,2.47
2022-11-08T22:22:27.532Z,2.10
2022-11-08T22:24:55.525Z,2.40
2022-11-08T22:27:21.941Z,2.50
2022-11-08T22:29:48.206Z,2.63
2022-11-08T22:32:14.506Z,2.70
2022-11-08T22:34:40.880Z,2.40
2022-11-08T22:37:07.123Z,2.60
2022-11-08T22:39:33.412Z,2.80
2022-11-08T22:41:59.670Z,2.63
2022-11-08T22:44:26.050Z,2.40
2022-11-08T22:46:52.290Z,2.43
2022-11-08T22:49:18.577Z,2.60
2022-11-08T22:51:45.539Z,2.50
2022-11-08T22:54:12.006Z,2.10
2022-11-08T22:56:38.433Z,2.03
2022-11-08T22:59:04.763Z,2.27
2022-11-08T23:01:31.019Z,2.33
2022-11-08T23:03:58.366Z,2.20
2022-11-08T23:06:24.605Z,2.20
2022-11-08T23:08:50.957Z,2.20
2022-11-08T23:11:36.046Z,2.40
2022-11-08T23:14:20.824Z,2.47
2022-11-08T23:16:47.076Z,2.30
2022-11-08T23:19:33.425Z,3.43
2022-11-08T23:22:18.792Z,2.27
2022-11-08T23:24:45.283Z,2.13
2022-11-08T23:27:31.378Z,2.50
2022-11-08T23:30:16.752Z,1.90
2022-11-08T23:32:46.884Z,2.30
2022-11-08T23:35:13.687Z,3.00
2022-11-08T23:37:40.021Z,2.30
2022-11-08T23:40:26.097Z,2.53
2022-11-08T23:43:21.073Z,2.50
2022-11-08T23:45:47.576Z,2.17
2022-11-08T23:48:13.785Z,2.60
2022-11-08T23:50:40.081Z,2.40
2022-11-08T23:53:06.309Z,2.60
2022-11-08T23:55:33.620Z,2.57
2022-11-08T23:57:59.827Z,2.17
